createdAt,value
2018-08-16T00:00:55.461Z,99866.00
2018-08-16T00:03:25.347Z,99862.00
2018-08-16T00:05:58.788Z,99857.00
2018-08-16T00:08:28.763Z,99856.00
2018-08-16T00:10:59.118Z,99855.00
2018-08-16T00:13:30.495Z,99856.00
2018-08-16T00:16:01.597Z,99856.00
2018-08-16T00:18:32.176Z,99854.00
2018-08-16T00:21:02.707Z,99846.00
2018-08-16T00:23:32.760Z,99851.00
2018-08-16T00:26:04.096Z,99846.00
2018-08-16T00:28:35.765Z,99846.00
2018-08-16T00:31:06.252Z,99842.00
2018-08-16T00:33:36.145Z,99852.00
2018-08-16T00:36:06.360Z,99852.00
2018-08-16T00:38:36.432Z,99855.00
2018-08-16T00:41:06.300Z,99848.00
2018-08-16T00:43:37.091Z,99849.00
2018-08-16T00:46:07.848Z,99843.00
2018-08-16T00:48:37.977Z,99837.00
2018-08-16T00:51:07.814Z,99832.00
2018-08-16T00:53:39.091Z,99827.00
2018-08-16T00:56:08.873Z,99827.00
2018-08-16T00:58:39.556Z,99821.00
2018-08-16T01:01:09.585Z,99820.00
2018-08-16T01:03:39.468Z,99810.00
2018-08-16T01:06:09.269Z,99820.00
2018-08-16T01:08:39.510Z,99813.00
2018-08-16T01:11:12.291Z,99809.00
2018-08-16T01:13:42.135Z,99824.00
2018-08-16T01:16:12.224Z,99809.00
2018-08-16T01:18:42.240Z,99800.00
2018-08-16T01:21:12.316Z,99796.00
2018-08-16T01:23:42.272Z,99795.00
2018-08-16T01:26:12.654Z,99785.00
2018-08-16T01:28:44.024Z,99797.00
2018-08-16T01:31:14.099Z,99791.00
2018-08-16T01:33:43.954Z,99786.00
2018-08-16T01:36:14.560Z,99795.00
2018-08-16T01:38:47.506Z,99777.00
2018-08-16T01:41:18.063Z,99782.00
2018-08-16T01:43:49.321Z,99777.00
2018-08-16T01:46:19.812Z,99779.00
2018-08-16T01:48:50.191Z,99779.00
2018-08-16T01:51:20.679Z,99777.00
2018-08-16T01:53:51.667Z,99769.00
2018-08-16T01:56:22.028Z,99767.00
2018-08-16T01:58:51.948Z,99764.00
2018-08-16T02:01:23.269Z,99760.00
2018-08-16T02:03:53.661Z,99758.00
2018-08-16T02:06:25.593Z,99749.00
2018-08-16T02:08:56.324Z,99745.00
2018-08-16T02:11:29.245Z,99736.00
2018-08-16T02:13:59.059Z,99742.00
2018-08-16T02:16:29.534Z,99745.00
2018-08-16T02:18:59.825Z,99746.00
2018-08-16T02:21:31.030Z,99729.00
2018-08-16T02:24:01.432Z,99723.00
2018-08-16T02:26:31.327Z,99732.00
2018-08-16T02:29:01.368Z,99732.00
2018-08-16T02:31:31.550Z,99722.00
2018-08-16T02:34:01.399Z,99708.00
2018-08-16T02:36:31.274Z,99699.00
2018-08-16T02:39:01.436Z,99693.00
2018-08-16T02:41:31.321Z,99693.00
2018-08-16T02:44:02.205Z,99707.00
2018-08-16T02:46:32.832Z,99702.00
2018-08-16T02:49:02.681Z,99633.00
2018-08-16T02:51:32.533Z,99696.00
2018-08-16T02:54:02.377Z,99685.00
2018-08-16T02:56:32.183Z,99681.00
2018-08-16T02:59:02.074Z,99683.00
2018-08-16T03:01:32.260Z,99676.00
2018-08-16T03:04:02.694Z,99683.00
2018-08-16T03:06:32.592Z,99681.00
2018-08-16T03:09:04.368Z,99683.00
2018-08-16T03:11:34.137Z,99668.00
2018-08-16T03:14:04.388Z,99662.00
2018-08-16T03:16:34.461Z,99662.00
2018-08-16T03:19:05.449Z,99658.00
2018-08-16T03:21:35.822Z,99663.00
2018-08-16T03:24:06.300Z,99667.00
2018-08-16T03:26:36.839Z,99659.00
2018-08-16T03:29:07.232Z,99667.00
2018-08-16T03:31:38.335Z,99665.00
2018-08-16T03:34:08.850Z,99665.00
2018-08-16T03:36:38.922Z,99664.00
2018-08-16T03:39:10.446Z,99671.00
2018-08-16T03:41:40.447Z,99664.00
2018-08-16T03:44:10.270Z,99663.00
2018-08-16T03:46:40.080Z,99652.00
2018-08-16T03:49:10.573Z,99663.00
2018-08-16T03:51:40.616Z,99663.00
2018-08-16T03:54:11.022Z,99660.00
2018-08-16T03:56:41.821Z,99652.00
2018-08-16T03:59:11.793Z,99647.00
2018-08-16T04:01:42.071Z,99647.00
2018-08-16T04:04:13.519Z,99653.00
2018-08-16T04:06:44.935Z,99651.00
2018-08-16T04:09:14.823Z,99652.00
2018-08-16T04:11:45.230Z,99656.00
2018-08-16T04:14:15.552Z,99655.00
2018-08-16T04:16:46.251Z,99660.00
2018-08-16T04:19:16.038Z,99669.00
2018-08-16T04:21:45.888Z,99679.00
2018-08-16T04:24:17.967Z,99686.00
2018-08-16T04:26:47.737Z,99684.00
2018-08-16T04:29:17.548Z,99685.00
2018-08-16T04:31:47.302Z,99697.00
2018-08-16T04:34:17.911Z,99685.00
2018-08-16T04:36:47.627Z,99683.00
2018-08-16T04:39:17.441Z,99684.00
2018-08-16T04:41:47.311Z,99685.00
2018-08-16T04:44:17.070Z,99674.00
2018-08-16T04:46:47.713Z,99685.00
2018-08-16T04:49:17.558Z,99685.00
2018-08-16T04:51:47.764Z,99688.00
2018-08-16T04:54:18.132Z,99689.00
2018-08-16T04:56:48.613Z,99678.00
2018-08-16T04:59:19.936Z,99694.00
2018-08-16T05:01:50.485Z,99686.00
2018-08-16T05:04:20.657Z,99697.00
2018-08-16T05:06:50.964Z,99697.00
2018-08-16T05:09:27.596Z,99692.00
2018-08-16T05:11:57.870Z,99694.00
2018-08-16T05:14:27.674Z,99685.00
2018-08-16T05:16:57.451Z,99692.00
2018-08-16T05:19:27.274Z,99684.00
2018-08-16T05:21:57.096Z,99688.00
2018-08-16T05:24:28.253Z,99674.00
2018-08-16T05:26:58.221Z,99682.00
2018-08-16T05:29:28.021Z,99683.00
2018-08-16T05:31:57.916Z,99692.00
2018-08-16T05:34:27.695Z,99701.00
2018-08-16T05:36:57.534Z,99686.00
2018-08-16T05:39:27.924Z,99708.00
2018-08-16T05:41:58.384Z,99705.00
2018-08-16T05:44:35.201Z,99712.00
2018-08-16T05:47:11.529Z,99709.00
2018-08-16T05:49:41.335Z,99715.00
2018-08-16T05:52:11.152Z,99702.00
2018-08-16T05:54:40.971Z,99702.00
2018-08-16T05:57:11.196Z,99695.00
2018-08-16T05:59:43.765Z,99691.00
2018-08-16T06:02:13.621Z,99687.00
2018-08-16T06:04:43.576Z,99676.00
2018-08-16T06:07:13.679Z,99675.00
2018-08-16T06:09:44.110Z,99682.00
2018-08-16T06:12:13.989Z,99676.00
2018-08-16T06:14:43.987Z,99682.00
2018-08-16T06:17:14.034Z,99697.00
2018-08-16T06:19:43.992Z,99701.00
2018-08-16T06:22:13.860Z,99702.00
2018-08-16T06:24:45.067Z,99723.00
2018-08-16T06:27:15.019Z,99723.00
2018-08-16T06:29:44.837Z,99729.00
2018-08-16T06:32:15.542Z,99727.00
2018-08-16T06:34:46.541Z,99732.00
2018-08-16T06:37:17.691Z,99725.00
2018-08-16T06:39:49.580Z,99706.00
2018-08-16T06:42:20.008Z,99704.00
2018-08-16T06:44:50.816Z,99709.00
2018-08-16T06:47:21.159Z,99715.00
2018-08-16T06:49:52.703Z,99722.00
2018-08-16T06:52:23.124Z,99719.00
2018-08-16T06:54:55.119Z,99726.00
2018-08-16T06:57:24.992Z,99730.00
2018-08-16T06:59:58.488Z,99720.00
2018-08-16T07:02:29.368Z,99729.00
2018-08-16T07:05:00.101Z,99739.00
2018-08-16T07:07:36.879Z,99731.00
2018-08-16T07:10:11.199Z,99748.00
2018-08-16T07:12:42.632Z,99730.00
2018-08-16T07:15:15.007Z,99763.00
2018-08-16T07:17:45.689Z,99751.00
2018-08-16T07:20:18.131Z,99745.00
2018-08-16T07:22:47.960Z,99749.00
2018-08-16T07:25:18.265Z,99735.00
2018-08-16T07:27:48.116Z,99712.00
2018-08-16T07:30:17.990Z,99721.00
2018-08-16T07:32:48.627Z,99751.00
2018-08-16T07:35:18.447Z,99737.00
2018-08-16T07:37:48.381Z,99740.00
2018-08-16T07:40:19.260Z,99756.00
2018-08-16T07:42:49.270Z,99761.00
2018-08-16T07:45:19.211Z,99732.00
2018-08-16T07:47:49.747Z,99741.00
2018-08-16T07:50:21.613Z,99752.00
2018-08-16T07:52:54.633Z,99756.00
2018-08-16T07:55:25.162Z,99721.00
2018-08-16T07:57:55.154Z,99749.00
2018-08-16T08:00:25.430Z,99734.00
2018-08-16T08:02:55.294Z,99728.00
2018-08-16T08:05:26.028Z,99727.00
2018-08-16T08:07:56.116Z,99719.00
2018-08-16T08:10:26.491Z,99708.00
2018-08-16T08:12:57.396Z,99730.00
2018-08-16T08:15:28.306Z,99726.00
2018-08-16T08:18:00.058Z,99706.00
2018-08-16T08:20:31.679Z,99717.00
2018-08-16T08:23:02.460Z,99720.00
2018-08-16T08:25:32.488Z,99715.00
2018-08-16T08:28:03.345Z,99725.00
2018-08-16T08:30:34.691Z,99733.00
2018-08-16T08:33:06.483Z,99739.00
2018-08-16T08:35:36.381Z,99751.00
2018-08-16T08:38:17.441Z,99764.00
2018-08-16T08:40:49.061Z,99761.00
2018-08-16T08:43:35.357Z,99750.00
2018-08-16T08:46:06.129Z,99763.00
2018-08-16T08:48:38.390Z,99771.00
2018-08-16T08:51:08.310Z,99773.00
2018-08-16T08:54:52.980Z,99761.00
2018-08-16T08:57:39.410Z,99749.00
2018-08-16T09:00:09.645Z,99755.00
2018-08-16T09:02:40.140Z,99749.00
2018-08-16T09:05:10.228Z,99754.00
2018-08-16T09:07:41.351Z,99750.00
2018-08-16T09:11:24.352Z,99751.00
2018-08-16T09:14:11.614Z,99769.00
2018-08-16T09:16:43.202Z,99758.00
2018-08-16T09:19:13.155Z,99763.00
2018-08-16T09:21:44.022Z,99771.00
2018-08-16T09:24:15.030Z,99779.00
2018-08-16T09:26:46.216Z,99764.00
2018-08-16T09:29:37.381Z,99752.00
2018-08-16T09:34:24.557Z,99760.00
2018-08-16T09:36:57.939Z,99762.00
2018-08-16T09:39:29.089Z,99736.00
2018-08-16T09:41:58.912Z,99763.00
2018-08-16T09:44:29.108Z,99758.00
2018-08-16T09:47:16.015Z,99762.00
2018-08-16T09:49:54.070Z,99757.00
2018-08-16T09:52:23.967Z,99775.00
2018-08-16T09:54:53.850Z,99782.00
2018-08-16T09:57:23.732Z,99788.00
2018-08-16T09:59:53.603Z,99781.00
2018-08-16T10:02:23.971Z,99770.00
2018-08-16T10:04:53.803Z,99762.00
2018-08-16T10:07:25.063Z,99776.00
2018-08-16T10:09:55.557Z,99766.00
2018-08-16T10:12:25.405Z,99764.00
2018-08-16T10:14:55.521Z,99776.00
2018-08-16T10:17:25.890Z,99793.00
2018-08-16T10:19:58.515Z,99795.00
2018-08-16T10:22:28.399Z,99797.00
2018-08-16T10:24:58.219Z,99801.00
2018-08-16T10:27:28.377Z,99802.00
2018-08-16T10:29:58.339Z,99803.00
2018-08-16T10:32:28.239Z,99808.00
2018-08-16T10:34:58.119Z,99820.00
2018-08-16T10:37:30.556Z,99809.00
2018-08-16T10:40:00.817Z,99813.00
2018-08-16T10:42:31.185Z,99811.00
2018-08-16T10:45:01.045Z,99808.00
2018-08-16T10:47:31.178Z,99806.00
2018-08-16T10:50:01.055Z,99826.00
2018-08-16T10:52:30.858Z,99809.00
2018-08-16T10:55:02.259Z,99821.00
2018-08-16T10:57:32.754Z,99813.00
2018-08-16T11:00:04.012Z,99824.00
2018-08-16T11:02:33.932Z,99819.00
2018-08-16T11:05:05.085Z,99822.00
2018-08-16T11:07:35.152Z,99823.00
2018-08-16T11:10:06.048Z,99825.00
2018-08-16T11:12:36.065Z,99819.00
2018-08-16T11:15:06.952Z,99831.00
2018-08-16T11:17:37.155Z,99833.00
2018-08-16T11:20:07.605Z,99839.00
2018-08-16T11:22:37.528Z,99840.00
2018-08-16T11:25:07.692Z,99826.00
2018-08-16T11:27:37.671Z,99822.00
2018-08-16T11:30:07.984Z,99817.00
2018-08-16T11:32:37.885Z,99824.00
2018-08-16T11:35:07.831Z,99824.00
2018-08-16T11:37:37.899Z,99826.00
2018-08-16T11:40:08.694Z,99827.00
2018-08-16T11:42:38.665Z,99812.00
2018-08-16T11:45:09.065Z,99824.00
2018-08-16T11:47:38.978Z,99830.00
2018-08-16T11:50:09.370Z,99813.00
2018-08-16T11:52:39.314Z,99833.00
2018-08-16T11:55:09.903Z,99812.00
2018-08-16T11:57:39.812Z,99829.00
2018-08-16T12:00:09.949Z,99830.00
2018-08-16T12:02:39.921Z,99823.00
2018-08-16T12:05:09.948Z,99822.00
2018-08-16T12:07:39.851Z,99819.00
2018-08-16T12:10:09.975Z,99829.00
2018-08-16T12:12:40.001Z,99843.00
2018-08-16T12:15:10.062Z,99828.00
2018-08-16T12:17:40.044Z,99832.00
2018-08-16T12:20:10.216Z,99811.00
2018-08-16T12:22:40.194Z,99822.00
2018-08-16T12:25:10.159Z,99830.00
2018-08-16T12:27:40.180Z,99842.00
2018-08-16T12:30:10.429Z,99839.00
2018-08-16T12:32:40.702Z,99813.00
2018-08-16T12:35:10.660Z,99829.00
2018-08-16T12:37:40.472Z,99832.00
2018-08-16T12:40:10.395Z,99832.00
2018-08-16T12:42:40.461Z,99835.00
2018-08-16T12:45:10.421Z,99843.00
2018-08-16T12:47:40.416Z,99844.00
2018-08-16T12:50:10.645Z,99846.00
2018-08-16T12:52:41.166Z,99846.00
2018-08-16T12:55:11.694Z,99849.00
2018-08-16T12:57:41.672Z,99852.00
2018-08-16T13:00:15.966Z,99854.00
2018-08-16T13:02:47.007Z,99839.00
2018-08-16T13:05:17.022Z,99836.00
2018-08-16T13:07:48.038Z,99835.00
2018-08-16T13:10:18.055Z,99841.00
2018-08-16T13:12:47.936Z,99844.00
2018-08-16T13:15:17.858Z,99855.00
2018-08-16T13:17:47.750Z,99854.00
2018-08-16T13:20:17.627Z,99850.00
2018-08-16T13:22:47.516Z,99855.00
2018-08-16T13:25:17.516Z,99853.00
2018-08-16T13:27:47.493Z,99862.00
2018-08-16T13:30:17.346Z,99845.00
2018-08-16T13:32:47.290Z,99861.00
2018-08-16T13:35:17.153Z,99853.00
2018-08-16T13:37:47.121Z,99853.00
2018-08-16T13:40:18.304Z,99840.00
2018-08-16T13:42:48.261Z,99848.00
2018-08-16T13:45:18.168Z,99840.00
2018-08-16T13:47:48.113Z,99850.00
2018-08-16T13:50:19.404Z,99837.00
2018-08-16T13:52:49.339Z,99854.00
2018-08-16T13:55:19.751Z,99847.00
2018-08-16T13:57:50.323Z,99839.00
2018-08-16T14:00:20.408Z,99837.00
2018-08-16T14:02:50.352Z,99837.00
2018-08-16T14:05:20.314Z,99850.00
2018-08-16T14:07:50.241Z,99846.00
2018-08-16T14:10:20.235Z,99845.00
2018-08-16T14:12:50.218Z,99858.00
2018-08-16T14:15:20.121Z,99855.00
2018-08-16T14:17:49.952Z,99847.00
2018-08-16T14:20:19.882Z,99839.00
2018-08-16T14:22:49.736Z,99842.00
2018-08-16T14:25:19.684Z,99830.00
2018-08-16T14:27:49.595Z,99824.00
2018-08-16T14:30:19.619Z,99829.00
2018-08-16T14:32:49.572Z,99853.00
2018-08-16T14:35:19.731Z,99864.00
2018-08-16T14:37:49.583Z,99844.00
2018-08-16T14:40:19.501Z,99844.00
2018-08-16T14:42:49.499Z,99842.00
2018-08-16T14:45:19.816Z,99834.00
2018-08-16T14:47:49.745Z,99835.00
2018-08-16T14:50:20.429Z,99842.00
2018-08-16T14:52:50.499Z,99854.00
2018-08-16T14:55:20.523Z,99854.00
2018-08-16T14:57:50.406Z,99874.00
2018-08-16T15:00:20.380Z,99858.00
2018-08-16T15:02:56.853Z,99882.00
2018-08-16T15:05:26.781Z,99879.00
2018-08-16T15:07:57.400Z,99880.00
2018-08-16T15:10:28.235Z,99860.00
2018-08-16T15:12:58.115Z,99880.00
2018-08-16T15:15:28.041Z,99893.00
2018-08-16T15:17:58.066Z,99885.00
2018-08-16T15:20:27.874Z,99889.00
2018-08-16T15:22:57.718Z,99891.00
2018-08-16T15:25:27.617Z,99882.00
2018-08-16T15:27:57.458Z,99891.00
2018-08-16T15:30:27.346Z,99897.00
2018-08-16T15:32:57.217Z,99905.00
2018-08-16T15:35:27.056Z,99898.00
2018-08-16T15:37:56.971Z,99911.00
2018-08-16T15:40:26.853Z,99893.00
2018-08-16T15:42:56.871Z,99907.00
2018-08-16T15:45:27.798Z,99906.00
2018-08-16T15:47:57.796Z,99921.00
2018-08-16T15:50:28.018Z,99915.00
2018-08-16T15:52:57.893Z,99905.00
2018-08-16T15:55:27.730Z,99913.00
2018-08-16T15:57:57.542Z,99917.00
2018-08-16T16:00:28.315Z,99912.00
2018-08-16T16:02:58.259Z,99915.00
2018-08-16T16:05:28.205Z,99917.00
2018-08-16T16:07:58.703Z,99904.00
2018-08-16T16:10:29.014Z,99916.00
2018-08-16T16:12:59.123Z,99910.00
2018-08-16T16:15:29.230Z,99917.00
2018-08-16T16:17:59.323Z,99927.00
2018-08-16T16:20:29.304Z,99905.00
2018-08-16T16:22:59.224Z,99928.00
2018-08-16T16:25:29.240Z,99931.00
2018-08-16T16:27:59.956Z,99943.00
2018-08-16T16:30:29.992Z,99949.00
2018-08-16T16:32:59.900Z,99935.00
2018-08-16T16:35:29.879Z,99940.00
2018-08-16T16:37:59.738Z,99938.00
2018-08-16T16:40:29.801Z,99940.00
2018-08-16T16:42:59.885Z,99934.00
2018-08-16T16:45:29.791Z,99938.00
2018-08-16T16:47:59.941Z,99949.00
2018-08-16T16:50:29.900Z,99950.00
2018-08-16T16:53:00.715Z,99949.00
2018-08-16T16:55:32.175Z,99957.00
2018-08-16T16:58:02.878Z,99925.00
2018-08-16T17:00:32.805Z,99933.00
2018-08-16T17:03:02.902Z,99932.00
2018-08-16T17:05:33.344Z,99939.00
2018-08-16T17:08:04.280Z,99957.00
2018-08-16T17:10:34.257Z,99943.00
2018-08-16T17:13:05.456Z,99941.00
2018-08-16T17:15:35.323Z,99941.00
2018-08-16T17:18:06.312Z,99953.00
2018-08-16T17:20:36.227Z,99939.00
2018-08-16T17:23:06.124Z,99946.00
2018-08-16T17:25:36.626Z,99944.00
2018-08-16T17:28:09.700Z,99961.00
2018-08-16T17:30:39.598Z,99968.00
2018-08-16T17:33:11.186Z,99968.00
2018-08-16T17:35:41.122Z,99978.00
2018-08-16T17:38:11.079Z,99969.00
2018-08-16T17:40:41.095Z,99958.00
2018-08-16T17:43:11.205Z,99957.00
2018-08-16T17:45:41.196Z,99960.00
2018-08-16T17:48:11.432Z,99964.00
2018-08-16T17:50:41.645Z,99961.00
2018-08-16T17:53:11.610Z,99968.00
2018-08-16T17:55:42.341Z,99982.00
2018-08-16T17:58:12.279Z,99982.00
2018-08-16T18:00:43.113Z,99985.00
2018-08-16T18:03:13.778Z,100000.00
2018-08-16T18:05:46.987Z,100001.00
2018-08-16T18:08:20.181Z,99997.00
2018-08-16T18:10:50.274Z,100003.00
2018-08-16T18:13:20.256Z,100003.00
2018-08-16T18:15:50.519Z,100009.00
2018-08-16T18:18:20.457Z,100010.00
2018-08-16T18:20:50.427Z,100000.00
2018-08-16T18:23:20.509Z,100013.00
2018-08-16T18:25:51.225Z,100016.00
2018-08-16T18:28:21.145Z,100019.00
2018-08-16T18:30:51.057Z,100018.00
2018-08-16T18:33:20.968Z,100023.00
2018-08-16T18:35:50.903Z,100020.00
2018-08-16T18:38:20.783Z,100027.00
2018-08-16T18:40:51.465Z,100038.00
2018-08-16T18:43:21.377Z,100029.00
2018-08-16T18:45:51.497Z,100033.00
2018-08-16T18:48:21.695Z,100041.00
2018-08-16T18:50:51.499Z,100051.00
2018-08-16T18:53:22.829Z,100060.00
2018-08-16T18:55:52.644Z,100051.00
2018-08-16T18:58:22.835Z,100047.00
2018-08-16T19:00:52.802Z,100059.00
2018-08-16T19:03:23.463Z,100058.00
2018-08-16T19:05:55.337Z,100058.00
2018-08-16T19:08:25.898Z,100068.00
2018-08-16T19:10:55.819Z,100079.00
2018-08-16T19:13:28.121Z,100073.00
2018-08-16T19:15:58.897Z,100078.00
2018-08-16T19:18:28.833Z,100089.00
2018-08-16T19:20:59.718Z,100098.00
2018-08-16T19:23:29.543Z,100101.00
2018-08-16T19:25:59.405Z,100104.00
2018-08-16T19:28:29.802Z,100103.00
2018-08-16T19:30:59.861Z,100112.00
2018-08-16T19:33:29.831Z,100111.00
2018-08-16T19:36:02.365Z,100102.00
2018-08-16T19:38:32.224Z,100113.00
2018-08-16T19:41:03.330Z,100110.00
2018-08-16T19:43:33.250Z,100113.00
2018-08-16T19:46:04.408Z,100122.00
2018-08-16T19:48:34.320Z,100125.00
2018-08-16T19:51:04.240Z,100123.00
2018-08-16T19:53:34.116Z,100130.00
2018-08-16T19:56:04.140Z,100139.00
2018-08-16T19:58:34.399Z,100134.00
2018-08-16T20:01:04.421Z,100144.00
2018-08-16T20:03:35.213Z,100145.00
2018-08-16T20:06:06.170Z,100133.00
2018-08-16T20:08:36.134Z,100139.00
2018-08-16T20:11:07.201Z,100141.00
2018-08-16T20:13:38.403Z,100150.00
2018-08-16T20:16:09.040Z,100152.00
2018-08-16T20:18:38.915Z,100160.00
2018-08-16T20:21:09.424Z,100156.00
2018-08-16T20:23:40.815Z,100156.00
2018-08-16T20:26:11.193Z,100158.00
2018-08-16T20:28:42.302Z,100158.00
2018-08-16T20:31:12.181Z,100166.00
2018-08-16T20:33:42.194Z,100153.00
2018-08-16T20:36:13.571Z,100172.00
2018-08-16T20:38:44.864Z,100154.00
2018-08-16T20:41:15.364Z,100160.00
2018-08-16T20:43:45.171Z,100170.00
2018-08-16T20:46:15.661Z,100171.00
2018-08-16T20:48:46.673Z,100171.00
2018-08-16T20:51:16.550Z,100178.00
2018-08-16T20:53:46.367Z,100180.00
2018-08-16T20:56:16.162Z,100194.00
2018-08-16T20:58:46.060Z,100192.00
2018-08-16T21:01:16.015Z,100187.00
2018-08-16T21:03:46.476Z,100190.00
2018-08-16T21:06:16.794Z,100202.00
2018-08-16T21:08:46.736Z,100193.00
2018-08-16T21:11:16.851Z,100198.00
2018-08-16T21:13:46.716Z,100212.00
2018-08-16T21:16:16.570Z,100202.00
2018-08-16T21:18:46.814Z,100200.00
2018-08-16T21:21:17.649Z,100205.00
2018-08-16T21:23:47.535Z,100207.00
2018-08-16T21:26:19.239Z,100206.00
2018-08-16T21:28:49.051Z,100216.00
2018-08-16T21:31:18.949Z,100206.00
2018-08-16T21:33:48.807Z,100215.00
2018-08-16T21:36:20.182Z,100204.00
2018-08-16T21:38:50.018Z,100225.00
2018-08-16T21:41:19.947Z,100223.00
2018-08-16T21:43:50.250Z,100234.00
2018-08-16T21:46:20.176Z,100230.00
2018-08-16T21:48:49.980Z,100224.00
2018-08-16T21:51:20.720Z,100228.00
2018-08-16T21:53:50.521Z,100224.00
2018-08-16T21:56:21.636Z,100229.00
2018-08-16T21:58:53.137Z,100232.00
2018-08-16T22:01:23.064Z,100235.00
2018-08-16T22:03:52.928Z,100248.00
2018-08-16T22:06:39.200Z,100242.00
2018-08-16T22:09:12.394Z,100246.00
2018-08-16T22:11:42.308Z,100255.00
2018-08-16T22:14:12.833Z,100247.00
2018-08-16T22:16:42.686Z,100248.00
2018-08-16T22:19:13.177Z,100250.00
2018-08-16T22:21:43.024Z,100250.00
2018-08-16T22:24:13.108Z,100251.00
2018-08-16T22:26:44.162Z,100252.00
2018-08-16T22:29:20.618Z,100255.00
2018-08-16T22:31:50.523Z,100256.00
2018-08-16T22:34:21.388Z,100256.00
2018-08-16T22:36:51.285Z,100252.00
2018-08-16T22:39:21.201Z,100256.00
2018-08-16T22:41:51.216Z,100245.00
2018-08-16T22:44:21.506Z,100252.00
2018-08-16T22:46:52.102Z,100251.00
2018-08-16T22:49:22.580Z,100252.00
2018-08-16T22:51:52.855Z,100254.00
2018-08-16T22:54:25.845Z,100259.00
2018-08-16T22:56:56.545Z,100260.00
2018-08-16T22:59:27.077Z,100266.00
2018-08-16T23:01:58.560Z,100265.00
2018-08-16T23:04:29.300Z,100269.00
2018-08-16T23:06:59.233Z,100265.00
2018-08-16T23:09:30.150Z,100260.00
2018-08-16T23:12:00.709Z,100262.00
2018-08-16T23:14:31.056Z,100262.00
2018-08-16T23:17:01.814Z,100269.00
2018-08-16T23:19:32.167Z,100275.00
2018-08-16T23:22:03.118Z,100279.00
2018-08-16T23:24:33.141Z,100282.00
2018-08-16T23:27:04.537Z,100288.00
2018-08-16T23:29:35.180Z,100288.00
2018-08-16T23:32:07.373Z,100282.00
2018-08-16T23:34:38.079Z,100280.00
2018-08-16T23:37:08.585Z,100276.00
2018-08-16T23:39:39.164Z,100286.00
2018-08-16T23:42:09.656Z,100282.00
2018-08-16T23:44:39.482Z,100226.00
2018-08-16T23:47:09.759Z,100292.00
2018-08-16T23:49:39.921Z,100290.00
2018-08-16T23:52:09.893Z,100289.00
2018-08-16T23:54:40.721Z,100294.00
2018-08-16T23:57:10.640Z,100298.00
2018-08-16T23:59:41.982Z,100289.00
